Time;durP1;ratioP1;P1;durP2;ratioP2;P2;SDS_P1;SDS_P2;PMS_P1;PMS_P2;Temp;Humidity;BMP_temperature;BMP_pressure;BME280_temperature;BME280_humidity;BME280_pressure;Samples;Min_cycle;Max_cycle;Signal;HPM_P1;HPM_P2
2023/03/14 00:00:10;;;;;;;5.20;4.70;;;;;;;5.79;55.89;99973.72;5055181;28;20684;-66
2023/03/14 00:02:37;;;;;;;4.93;4.50;;;;;;;5.71;55.68;99974.50;5055310;28;20279;-67
2023/03/14 00:05:06;;;;;;;9.63;5.00;;;;;;;5.68;56.35;99977.44;5055116;28;20201;-66
2023/03/14 00:07:35;;;;;;;5.47;3.83;;;;;;;5.62;56.81;99972.78;5055258;28;20669;-66
2023/03/14 00:10:04;;;;;;;11.77;5.23;;;;;;;5.62;56.85;99967.50;5055761;28;20199;-66
2023/03/14 00:12:32;;;;;;;8.87;5.00;;;;;;;5.67;56.97;99964.41;5055037;28;20679;-66
2023/03/14 00:15:03;;;;;;;13.33;5.57;;;;;;;5.60;57.25;99963.38;5055173;28;20203;-66
2023/03/14 00:17:30;;;;;;;5.97;5.30;;;;;;;5.40;57.87;99946.91;5066184;28;20231;-66
2023/03/14 00:19:57;;;;;;;6.40;5.80;;;;;;;5.32;57.31;99962.63;5075145;28;20928;-66
2023/03/14 00:22:24;;;;;;;8.87;6.33;;;;;;;5.20;57.94;99950.66;5075387;28;20282;-66
2023/03/14 00:24:51;;;;;;;5.93;5.30;;;;;;;5.04;58.21;99950.53;5074750;28;20826;-67
2023/03/14 00:27:18;;;;;;;7.10;5.37;;;;;;;4.93;58.88;99945.50;5075046;28;20227;-67
2023/03/14 00:29:46;;;;;;;8.57;7.10;;;;;;;4.80;58.83;99952.09;5074879;28;20188;-67
2023/03/14 00:32:12;;;;;;;7.23;6.53;;;;;;;4.82;59.82;99944.88;5075020;28;20249;-67
2023/03/14 00:34:39;;;;;;;6.50;6.00;;;;;;;4.78;59.17;99928.53;5074766;28;20551;-68
2023/03/14 00:37:06;;;;;;;6.23;5.73;;;;;;;4.78;59.00;99935.63;5074607;28;20196;-66
2023/03/14 00:39:33;;;;;;;7.93;5.77;;;;;;;4.65;59.09;99927.25;5074502;28;20188;-67
2023/03/14 00:41:59;;;;;;;6.53;5.60;;;;;;;4.59;59.82;99918.16;5074837;28;20265;-66
2023/03/14 00:44:26;;;;;;;7.20;6.60;;;;;;;4.67;59.23;99923.50;5074891;28;20227;-67
2023/03/14 00:46:54;;;;;;;9.43;6.30;;;;;;;4.74;59.85;99914.03;5074637;28;20191;-67
2023/03/14 00:49:21;;;;;;;7.67;5.67;;;;;;;4.79;59.06;99914.41;5074520;28;20442;-67
2023/03/14 00:51:47;;;;;;;6.67;6.07;;;;;;;4.83;59.53;99910.50;5074312;28;20253;-67
2023/03/14 00:54:14;;;;;;;9.17;6.43;;;;;;;4.81;59.71;99914.25;5074278;28;20214;-67
2023/03/14 00:56:41;;;;;;;5.33;5.03;;;;;;;4.83;59.67;99910.50;5074143;28;20756;-67
2023/03/14 00:59:07;;;;;;;5.87;5.37;;;;;;;4.86;59.38;99910.22;5062426;28;20274;-67
2023/03/14 01:01:34;;;;;;;7.37;6.30;;;;;;;4.90;59.49;99901.03;5054028;28;20266;-67
2023/03/14 01:04:02;;;;;;;6.87;6.23;;;;;;;4.92;59.33;99896.47;5054205;28;20254;-67
2023/03/14 01:06:30;;;;;;;9.67;6.73;;;;;;;4.96;59.68;99889.94;5054379;28;20197;-67
2023/03/14 01:08:58;;;;;;;7.77;5.90;;;;;;;4.96;59.24;99887.28;5054507;28;20192;-66
2023/03/14 01:11:27;;;;;;;8.40;6.70;;;;;;;4.95;60.05;99882.97;5053735;28;20250;-67
2023/03/14 01:13:54;;;;;;;6.93;6.33;;;;;;;4.96;60.03;99889.94;5054411;28;20196;-67
2023/03/14 01:16:22;;;;;;;7.83;7.00;;;;;;;4.93;60.26;99877.06;5053940;28;20192;-67
2023/03/14 01:18:49;;;;;;;11.87;7.00;;;;;;;4.90;59.72;99874.72;5053936;28;20197;-66
2023/03/14 01:21:20;;;;;;;6.90;6.20;;;;;;;4.95;60.46;99879.53;5053884;28;20290;-67
2023/03/14 01:23:47;;;;;;;7.53;6.67;;;;;;;4.99;61.17;99873.81;5054300;28;20242;-67
2023/03/14 01:26:16;;;;;;;7.57;6.57;;;;;;;4.99;60.88;99873.00;5053646;28;20196;-67
2023/03/14 01:28:43;;;;;;;7.33;6.67;;;;;;;4.96;60.74;99874.13;5054077;28;20259;-67
2023/03/14 01:31:12;;;;;;;7.30;6.60;;;;;;;4.81;60.63;99875.63;5054056;28;20200;-66
2023/03/14 01:33:39;;;;;;;7.40;6.37;;;;;;;4.75;61.26;99872.78;5053753;28;20577;-68
2023/03/14 01:36:07;;;;;;;9.07;7.27;;;;;;;4.56;61.08;99865.84;5053639;28;20626;-67
2023/03/14 01:38:37;;;;;;;8.03;7.20;;;;;;;4.48;62.18;99868.38;5053950;28;20643;-68
2023/03/14 01:41:04;;;;;;;8.97;7.67;;;;;;;4.49;62.09;99869.19;5053612;28;20273;-67
2023/03/14 01:43:31;;;;;;;8.97;7.13;;;;;;;4.53;62.11;99871.41;5053526;28;20665;-67
2023/03/14 01:46:20;;;;;;;8.93;8.13;;;;;;;4.57;61.19;99871.91;5053003;28;20192;-67
2023/03/14 01:48:52;;;;;;;10.10;8.73;;;;;;;4.53;60.85;99860.88;5053633;28;20622;-68
2023/03/14 01:51:22;;;;;;;14.43;8.77;;;;;;;4.52;61.39;99861.00;5053244;28;20648;-67
2023/03/14 01:53:53;;;;;;;9.17;8.13;;;;;;;4.57;61.42;99864.03;5053282;28;20292;-68
2023/03/14 01:56:20;;;;;;;11.37;8.27;;;;;;;4.57;60.75;99859.59;5053115;28;20692;-67
2023/03/14 01:58:51;;;;;;;14.33;8.70;;;;;;;4.50;60.68;99861.16;5052658;28;20242;-67
2023/03/14 02:01:20;;;;;;;10.20;8.63;;;;;;;4.38;61.45;99856.28;5053297;28;20224;-68
2023/03/14 02:03:51;;;;;;;13.17;9.20;;;;;;;4.42;61.04;99855.00;5053484;28;20446;-68
2023/03/14 02:06:22;;;;;;;11.60;8.53;;;;;;;4.36;60.96;99853.78;5053618;28;20228;-67
2023/03/14 02:08:51;;;;;;;8.73;7.83;;;;;;;4.32;61.28;99852.44;5053411;28;20500;-68
2023/03/14 02:11:18;;;;;;;8.90;7.30;;;;;;;4.31;60.67;99852.56;5053248;28;20278;-68
2023/03/14 02:13:46;;;;;;;9.33;8.00;;;;;;;4.27;61.17;99853.84;5055175;28;20196;-67
2023/03/14 02:16:12;;;;;;;11.37;7.40;;;;;;;4.25;61.44;99851.34;5072816;28;20191;-68
2023/03/14 02:18:41;;;;;;;10.90;7.97;;;;;;;4.28;61.61;99850.22;5072318;28;20434;-68
2023/03/14 02:21:15;;;;;;;8.57;7.60;;;;;;;4.31;60.42;99844.69;5073254;28;20242;-67
2023/03/14 02:23:54;;;;;;;8.73;7.93;;;;;;;4.31;60.32;99842.06;5054195;28;20250;-68
2023/03/14 02:26:25;;;;;;;7.27;6.37;;;;;;;4.17;61.38;99843.38;5052107;28;21019;-68
2023/03/14 02:28:54;;;;;;;9.83;6.40;;;;;;;4.17;61.46;99840.75;5052606;28;20181;-68
2023/03/14 02:31:22;;;;;;;7.40;6.60;;;;;;;4.23;61.43;99842.81;5052184;28;20447;-68
2023/03/14 02:33:49;;;;;;;7.13;5.87;;;;;;;4.16;60.75;99847.00;5055500;28;20192;-66
2023/03/14 02:36:16;;;;;;;9.27;5.50;;;;;;;4.04;61.16;99842.91;5052721;28;20443;-67
2023/03/14 02:38:48;;;;;;;6.63;6.00;;;;;;;4.04;61.73;99842.09;5052854;28;20504;-68
2023/03/14 02:41:15;;;;;;;6.73;6.07;;;;;;;4.06;61.06;99846.22;5052154;28;20266;-67
2023/03/14 02:43:41;;;;;;;8.90;6.10;;;;;;;4.07;60.58;99839.16;5068606;28;20507;-68
2023/03/14 02:46:12;;;;;;;5.80;5.40;;;;;;;4.02;61.21;99836.97;5072180;28;20499;-68
2023/03/14 02:48:42;;;;;;;7.43;5.97;;;;;;;4.00;60.81;99852.06;5072308;28;20631;-68
2023/03/14 02:51:09;;;;;;;6.13;5.60;;;;;;;3.96;61.31;99844.63;5072804;28;20253;-68
2023/03/14 02:53:37;;;;;;;9.60;6.17;;;;;;;3.95;61.94;99849.03;5056252;28;20196;-68
2023/03/14 02:56:05;;;;;;;6.77;6.17;;;;;;;3.96;61.76;99858.56;5052490;28;20493;-68
2023/03/14 02:58:32;;;;;;;8.93;6.80;;;;;;;3.93;61.67;99856.22;5052051;28;20536;-68
2023/03/14 03:00:59;;;;;;;7.00;6.33;;;;;;;3.93;62.36;99856.22;5052438;28;20212;-67
2023/03/14 03:03:27;;;;;;;6.90;6.30;;;;;;;3.92;62.20;99848.50;5052484;28;20611;-68
2023/03/14 03:05:55;;;;;;;7.70;6.90;;;;;;;3.91;61.92;99855.56;5052046;28;20935;-68
2023/03/14 03:08:24;;;;;;;9.03;6.40;;;;;;;3.88;62.19;99858.47;5052167;28;20500;-67
2023/03/14 03:10:51;;;;;;;7.07;6.47;;;;;;;3.90;62.42;99860.94;5052106;28;20360;-67
2023/03/14 03:13:18;;;;;;;7.40;6.80;;;;;;;3.90;62.47;99866.22;5063692;28;20675;-67
2023/03/14 03:15:45;;;;;;;7.63;6.93;;;;;;;3.95;62.74;99864.81;5072037;28;20901;-67
2023/03/14 03:18:12;;;;;;;8.20;7.40;;;;;;;3.95;62.52;99866.59;5071958;28;20265;-67
2023/03/14 03:20:40;;;;;;;11.70;8.60;;;;;;;3.94;62.85;99865.78;5067487;28;20220;-67
2023/03/14 03:23:07;;;;;;;10.60;9.00;;;;;;;3.95;63.42;99858.72;5059489;28;20829;-66
2023/03/14 03:25:34;;;;;;;13.97;8.53;;;;;;;3.89;63.44;99854.06;5072196;28;20438;-67
2023/03/14 03:28:01;;;;;;;9.20;8.30;;;;;;;3.93;63.44;99855.41;5072067;28;20200;-67
2023/03/14 03:30:28;;;;;;;13.47;10.20;;;;;;;3.99;62.53;99854.81;5068716;28;20264;-67
2023/03/14 03:32:54;;;;;;;9.27;8.37;;;;;;;4.01;63.18;99853.69;5051892;28;20443;-67
2023/03/14 03:35:21;;;;;;;12.17;8.27;;;;;;;4.04;63.21;99858.66;5051690;28;20501;-66
2023/03/14 03:37:49;;;;;;;9.00;8.20;;;;;;;4.04;63.37;99848.16;5051475;28;20192;-67
2023/03/14 03:40:16;;;;;;;9.07;7.80;;;;;;;3.95;64.54;99851.66;5051781;28;20446;-69
2023/03/14 03:42:42;;;;;;;10.27;9.13;;;;;;;3.99;64.29;99845.16;5066043;28;20478;-66
2023/03/14 03:45:10;;;;;;;12.37;9.53;;;;;;;4.04;63.82;99847.34;5071622;28;20434;-66
2023/03/14 03:47:36;;;;;;;12.83;9.40;;;;;;;4.03;64.17;99846.50;5071822;28;20496;-66
2023/03/14 03:50:04;;;;;;;12.87;10.83;;;;;;;4.04;63.99;99853.41;5071928;28;20245;-67
2023/03/14 03:52:30;;;;;;;14.10;9.63;;;;;;;4.04;64.07;99858.66;5063503;28;20520;-66
2023/03/14 03:54:58;;;;;;;11.17;9.97;;;;;;;4.06;64.69;99851.47;5051299;28;20488;-67
2023/03/14 03:57:25;;;;;;;15.10;11.77;;;;;;;4.09;63.88;99845.91;5050942;28;20938;-67
2023/03/14 03:59:52;;;;;;;16.17;10.67;;;;;;;4.11;64.06;99843.97;5050724;28;20958;-67
2023/03/14 04:02:18;;;;;;;13.00;11.00;;;;;;;4.10;63.87;99841.50;5051553;28;20547;-67
2023/03/14 04:04:45;;;;;;;23.20;10.93;;;;;;;4.07;63.91;99839.16;5050950;28;20435;-68
2023/03/14 04:07:13;;;;;;;14.80;10.70;;;;;;;4.04;64.85;99837.66;5050779;28;20447;-67
2023/03/14 04:09:40;;;;;;;13.63;9.87;;;;;;;3.91;65.46;99831.91;5048594;28;20447;-68
2023/03/14 04:12:08;;;;;;;17.70;10.30;;;;;;;3.78;65.26;99831.41;5050881;28;20454;-68
2023/03/14 04:14:35;;;;;;;25.07;11.47;;;;;;;3.73;66.11;99828.41;5050580;28;20469;-68
2023/03/14 04:17:02;;;;;;;14.87;10.30;;;;;;;3.74;66.86;99830.06;5050882;28;20439;-67
2023/03/14 04:19:28;;;;;;;22.17;11.17;;;;;;;3.59;66.10;99831.47;5050747;28;21027;-67
2023/03/14 04:21:55;;;;;;;14.17;10.13;;;;;;;3.48;66.38;99818.53;5051055;28;20909;-67
2023/03/14 04:24:21;;;;;;;17.23;9.00;;;;;;;3.25;67.70;99819.84;5051072;28;20831;-67
2023/03/14 04:26:48;;;;;;;10.00;9.10;;;;;;;3.10;67.59;99823.88;5050886;28;20524;-69
2023/03/14 04:29:17;;;;;;;22.23;10.03;;;;;;;2.97;67.61;99818.09;5051169;28;20435;-67
2023/03/14 04:31:43;;;;;;;15.53;10.07;;;;;;;2.97;69.27;99822.50;5061706;28;20873;-68
2023/03/14 04:34:10;;;;;;;19.97;10.60;;;;;;;2.90;69.13;99821.44;5070916;28;20563;-68
2023/03/14 04:36:37;;;;;;;21.37;10.67;;;;;;;2.88;68.83;99818.94;5070790;28;20446;-67
2023/03/14 04:39:04;;;;;;;21.23;11.03;;;;;;;2.89;69.70;99817.97;5071064;28;20442;-68
2023/03/14 04:41:31;;;;;;;26.40;10.70;;;;;;;2.92;68.96;99812.44;5061443;28;20474;-68
2023/03/14 04:43:57;;;;;;;28.30;12.37;;;;;;;2.93;69.15;99815.88;5054253;28;20493;-68
2023/03/14 04:46:25;;;;;;;21.93;10.93;;;;;;;2.88;69.80;99811.06;5054259;28;20435;-68
2023/03/14 04:48:52;;;;;;;25.23;10.87;;;;;;;2.93;69.17;99808.00;5053789;28;20439;-69
2023/03/14 04:51:19;;;;;;;18.63;11.20;;;;;;;2.94;70.22;99818.38;5054173;28;20532;-67
2023/03/14 04:53:45;;;;;;;37.50;11.83;;;;;;;3.10;69.11;99817.81;5053513;28;20435;-70
2023/03/14 04:56:12;;;;;;;19.73;10.93;;;;;;;3.13;69.12;99805.22;5054144;28;20492;-62
2023/03/14 04:58:39;;;;;;;21.43;12.57;;;;;;;3.31;68.70;99821.09;5053765;28;20485;-63
2023/03/14 05:01:07;;;;;;;32.73;11.83;;;;;;;3.42;68.75;99824.34;5054241;28;20431;-62
2023/03/14 05:03:37;;;;;;;29.77;11.37;;;;;;;3.66;67.33;99832.56;5053938;28;20435;-63
2023/03/14 05:06:05;;;;;;;45.93;13.43;;;;;;;4.00;67.07;99841.53;5054156;28;20465;-63
2023/03/14 05:08:31;;;;;;;28.50;13.60;;;;;;;4.26;66.07;99834.63;5053926;28;20514;-63
2023/03/14 05:10:59;;;;;;;35.27;12.33;;;;;;;4.74;64.41;99832.47;5054222;28;20468;-62
2023/03/14 05:13:26;;;;;;;35.17;12.47;;;;;;;5.42;62.94;99850.13;5054991;28;20188;-62
2023/03/14 05:15:53;;;;;;;34.10;14.57;;;;;;;5.99;60.48;99847.81;5053240;28;20242;-62
2023/03/14 05:18:20;;;;;;;21.67;11.57;;;;;;;6.34;57.31;99855.53;5053658;28;20451;-62
2023/03/14 05:20:51;;;;;;;20.27;11.07;;;;;;;6.73;55.27;99859.28;5054879;28;20189;-62
2023/03/14 05:23:18;;;;;;;11.37;8.87;;;;;;;6.96;52.91;99855.00;5073408;28;20259;-62
2023/03/14 05:25:45;;;;;;;16.77;10.47;;;;;;;6.94;52.51;99854.34;5073554;28;20195;-62
2023/03/14 05:28:12;;;;;;;12.53;11.20;;;;;;;7.05;52.61;99857.47;5073372;28;20288;-63
2023/03/14 05:30:38;;;;;;;25.23;11.27;;;;;;;7.45;52.23;99861.94;5073159;28;20196;-65
2023/03/14 05:33:05;;;;;;;28.57;13.23;;;;;;;7.89;50.64;99861.34;5071758;28;20246;-63
2023/03/14 05:35:32;;;;;;;24.37;12.27;;;;;;;8.10;51.03;99863.41;5072872;28;20697;-62
2023/03/14 05:38:00;;;;;;;20.10;12.83;;;;;;;8.35;50.83;99865.00;5073025;28;20196;-63
2023/03/14 05:40:27;;;;;;;23.00;12.60;;;;;;;8.54;50.39;99859.28;5072855;28;20192;-64
2023/03/14 05:42:53;;;;;;;17.30;11.10;;;;;;;8.96;49.75;99862.31;5054512;28;20218;-64
2023/03/14 05:45:20;;;;;;;14.63;11.20;;;;;;;9.02;49.94;99864.25;5052462;28;20716;-64
2023/03/14 05:47:47;;;;;;;15.73;11.00;;;;;;;9.16;49.11;99858.19;5052873;28;20192;-63
2023/03/14 05:50:14;;;;;;;22.37;11.57;;;;;;;9.50;49.08;99861.19;5062060;28;20618;-64
2023/03/14 05:52:40;;;;;;;13.77;11.53;;;;;;;9.46;48.11;99859.91;5072449;28;20272;-65
2023/03/14 05:55:09;;;;;;;12.97;11.57;;;;;;;9.38;48.30;99867.91;5072469;28;20192;-64
2023/03/14 05:57:36;;;;;;;15.97;11.33;;;;;;;9.60;47.47;99861.78;5071989;28;20188;-63
2023/03/14 06:00:03;;;;;;;21.97;12.33;;;;;;;9.59;48.20;99862.75;5052885;28;20282;-64
2023/03/14 06:02:30;;;;;;;22.90;11.80;;;;;;;9.99;45.92;99863.16;5052638;28;20321;-64
2023/03/14 06:04:57;;;;;;;24.73;12.07;;;;;;;10.31;45.27;99870.78;5052218;28;20193;-65
2023/03/14 06:07:23;;;;;;;21.77;12.33;;;;;;;10.37;44.68;99858.56;5052581;28;20254;-64
2023/03/14 06:09:50;;;;;;;13.57;12.03;;;;;;;10.63;43.54;99864.22;5057457;28;20217;-64
2023/03/14 06:12:18;;;;;;;20.53;12.53;;;;;;;10.46;44.02;99862.78;5071977;28;20219;-64
2023/03/14 06:14:45;;;;;;;21.30;13.13;;;;;;;10.69;42.83;99856.31;5072325;28;20187;-67
2023/03/14 06:17:12;;;;;;;23.70;12.63;;;;;;;10.53;43.78;99867.16;5072209;28;20281;-67
2023/03/14 06:19:38;;;;;;;27.23;12.60;;;;;;;10.61;44.61;99852.94;5058465;28;20192;-64
2023/03/14 06:22:05;;;;;;;23.13;12.87;;;;;;;10.89;42.45;99849.38;5051963;28;20350;-65
2023/03/14 06:24:32;;;;;;;27.20;13.27;;;;;;;11.13;41.84;99853.50;5047622;28;20608;-63
2023/03/14 06:26:59;;;;;;;46.83;15.13;;;;;;;11.28;41.31;99845.44;5051483;28;20741;-65
2023/03/14 06:29:27;;;;;;;25.03;13.10;;;;;;;11.46;40.90;99843.94;5052009;28;20255;-64
2023/03/14 06:31:53;;;;;;;17.83;12.83;;;;;;;11.41;40.00;99834.91;5051637;28;20254;-65
2023/03/14 06:34:20;;;;;;;24.20;13.37;;;;;;;11.57;40.04;99848.75;5050970;28;20676;-64
2023/03/14 06:36:47;;;;;;;21.60;13.33;;;;;;;12.01;39.77;99837.81;5050917;28;20580;-66
2023/03/14 06:39:14;;;;;;;20.40;13.23;;;;;;;12.25;38.38;99840.78;5050749;28;20675;-64
2023/03/14 06:41:40;;;;;;;17.17;12.30;;;;;;;12.27;38.63;99849.41;5050223;28;20252;-65
2023/03/14 06:44:07;;;;;;;16.90;11.83;;;;;;;12.62;37.44;99850.97;5049015;28;20251;-65
2023/03/14 06:46:35;;;;;;;18.87;12.53;;;;;;;12.59;37.78;99838.06;5050585;28;20197;-66
2023/03/14 06:49:02;;;;;;;26.97;12.63;;;;;;;12.90;37.51;99845.53;5037322;28;20202;-66
2023/03/14 06:51:29;;;;;;;18.73;12.70;;;;;;;13.18;37.03;99844.34;5032189;28;20660;-66
2023/03/14 06:53:56;;;;;;;21.03;12.37;;;;;;;13.10;36.93;99846.38;5048405;28;20208;-66
2023/03/14 06:56:22;;;;;;;16.67;12.80;;;;;;;12.87;36.79;99841.38;5042006;28;20192;-66
2023/03/14 06:58:49;;;;;;;28.00;15.07;;;;;;;13.29;36.44;99830.41;5038768;28;20219;-67
2023/03/14 07:01:22;;;;;;;19.53;12.60;;;;;;;13.52;35.92;99828.13;5049584;28;20245;-67
2023/03/14 07:03:50;;;;;;;45.07;15.57;;;;;;;13.58;35.97;99830.00;5049912;28;20203;-67
2023/03/14 07:06:17;;;;;;;28.67;16.07;;;;;;;13.19;36.38;99829.97;5031936;28;20732;-65
2023/03/14 07:08:44;;;;;;;25.43;15.87;;;;;;;13.00;38.15;99822.81;5045240;28;20195;-65
2023/03/14 07:11:11;;;;;;;42.30;15.97;;;;;;;13.20;36.76;99818.31;5054491;28;20740;-67
2023/03/14 07:13:37;;;;;;;26.90;14.97;;;;;;;12.78;37.06;99820.47;5050168;28;20196;-65
2023/03/14 07:16:05;;;;;;;23.50;13.43;;;;;;;12.82;39.45;99817.19;5050168;28;20249;-65
2023/03/14 07:18:31;;;;;;;25.70;13.27;;;;;;;12.74;37.05;99804.03;5050404;28;20244;-65
2023/03/14 07:21:00;;;;;;;25.97;14.70;;;;;;;13.01;36.81;99808.44;5050404;28;20283;-63
2023/03/14 07:23:26;;;;;;;22.43;13.90;;;;;;;13.29;37.06;99806.41;5043572;28;20651;-66
2023/03/14 07:25:53;;;;;;;26.83;13.60;;;;;;;13.59;36.97;99804.94;5050287;28;20266;-66
2023/03/14 07:28:20;;;;;;;23.13;12.70;;;;;;;13.83;35.20;99796.25;5050736;28;20286;-66
2023/03/14 07:30:47;;;;;;;22.27;13.80;;;;;;;14.17;33.57;99789.78;5057116;28;20731;-67
2023/03/14 07:33:14;;;;;;;20.90;11.83;;;;;;;14.29;33.82;99796.94;5067638;28;20202;-67
2023/03/14 07:35:41;;;;;;;18.63;13.30;;;;;;;14.15;33.36;99792.66;5052312;28;20204;-66
2023/03/14 07:38:09;;;;;;;19.63;10.90;;;;;;;14.57;35.76;99794.75;5050089;28;20614;-66
2023/03/14 07:40:36;;;;;;;24.47;11.47;;;;;;;14.72;33.45;99787.28;5045426;28;20291;-67
2023/03/14 07:43:03;;;;;;;54.73;14.43;;;;;;;14.68;32.87;99780.72;5049110;28;20314;-68
2023/03/14 07:45:29;;;;;;;20.43;12.37;;;;;;;14.13;34.25;99789.38;5049430;28;20227;-67
2023/03/14 07:47:57;;;;;;;12.03;10.87;;;;;;;14.06;36.91;99777.09;5048750;28;20193;-66
2023/03/14 07:50:24;;;;;;;11.60;8.53;;;;;;;14.31;37.41;99778.88;5050666;28;20201;-70
2023/03/14 07:52:50;;;;;;;19.40;8.90;;;;;;;15.06;41.25;99772.59;5050433;28;20215;-76
2023/03/14 07:55:19;;;;;;;10.87;9.50;;;;;;;16.04;35.22;99771.69;5053238;28;20211;-70
2023/03/14 07:57:45;;;;;;;30.30;10.60;;;;;;;16.51;33.11;99776.25;5029988;28;20200;-68
2023/03/14 08:00:13;;;;;;;15.87;10.23;;;;;;;17.05;31.59;99776.06;5049799;28;20228;-68
2023/03/14 08:02:40;;;;;;;23.10;10.87;;;;;;;17.38;29.19;99769.13;5049929;28;20216;-69
2023/03/14 08:05:08;;;;;;;22.10;10.93;;;;;;;17.48;30.52;99773.94;5048928;28;20197;-69
2023/03/14 08:07:35;;;;;;;26.07;11.43;;;;;;;17.54;31.39;99765.75;5049698;28;20667;-68
2023/03/14 08:10:05;;;;;;;14.97;10.80;;;;;;;17.81;29.69;99771.47;5049157;28;20671;-67
2023/03/14 08:12:33;;;;;;;14.83;10.93;;;;;;;17.93;28.86;99761.53;5045062;28;20197;-71
2023/03/14 08:15:00;;;;;;;14.17;10.40;;;;;;;18.13;28.15;99765.44;5051020;28;20247;-72
2023/03/14 08:17:26;;;;;;;19.00;10.23;;;;;;;18.22;28.53;99766.69;5037793;28;20289;-71
2023/03/14 08:19:53;;;;;;;16.93;10.73;;;;;;;18.14;28.96;99752.81;5069214;28;20275;-69
2023/03/14 08:22:20;;;;;;;14.37;9.93;;;;;;;18.09;27.78;99763.47;5059601;28;20224;-69
2023/03/14 08:24:46;;;;;;;24.60;10.90;;;;;;;18.17;27.83;99763.09;5063537;28;20193;-69
2023/03/14 08:27:14;;;;;;;15.87;10.23;;;;;;;18.29;29.43;99758.50;5055136;28;20246;-68
2023/03/14 08:29:42;;;;;;;22.03;10.27;;;;;;;17.90;27.92;99759.31;5056721;28;20667;-67
2023/03/14 08:32:09;;;;;;;19.43;9.73;;;;;;;17.68;27.93;99752.91;5068957;28;20196;-68
2023/03/14 08:34:35;;;;;;;10.40;9.53;;;;;;;17.78;27.72;99755.81;5053102;28;20254;-71
2023/03/14 08:37:02;;;;;;;12.10;10.10;;;;;;;17.72;27.59;99748.69;5053964;28;20190;-70
2023/03/14 08:39:29;;;;;;;21.50;10.87;;;;;;;17.66;27.82;99709.31;5033058;28;20251;-69
2023/03/14 08:41:55;;;;;;;18.33;9.93;;;;;;;17.48;27.33;99736.34;5052273;28;20274;-69
2023/03/14 08:44:22;;;;;;;23.50;10.23;;;;;;;17.24;28.02;99743.56;5052370;28;20221;-70
2023/03/14 08:46:50;;;;;;;196.83;23.27;;;;;;;17.10;28.51;99741.28;5051781;28;20664;-69
2023/03/14 08:49:17;;;;;;;14.63;9.50;;;;;;;17.33;27.84;99744.00;5046139;28;20603;-70
2023/03/14 08:51:43;;;;;;;10.33;9.13;;;;;;;17.52;27.48;99722.19;5053218;28;20199;-70
2023/03/14 08:54:11;;;;;;;12.53;9.43;;;;;;;17.53;27.50;99714.97;5052325;28;20226;-71
2023/03/14 08:56:38;;;;;;;11.43;8.73;;;;;;;17.71;27.14;99722.88;5032533;28;20272;-71
2023/03/14 08:59:05;;;;;;;9.83;8.73;;;;;;;17.79;27.00;99709.06;5050886;28;20298;-70
2023/03/14 09:01:32;;;;;;;11.20;7.97;;;;;;;17.83;27.00;99699.47;5051948;28;20198;-71
2023/03/14 09:04:00;;;;;;;8.20;7.50;;;;;;;17.56;26.87;99701.06;5051088;28;20238;-71
2023/03/14 09:06:27;;;;;;;15.60;8.03;;;;;;;17.64;27.07;99695.34;5053300;28;20271;-71
2023/03/14 09:08:53;;;;;;;19.97;8.30;;;;;;;17.48;27.40;99682.63;5052409;28;20354;-69
2023/03/14 09:11:20;;;;;;;12.60;7.57;;;;;;;17.23;27.56;99671.28;5052541;28;20187;-69
2023/03/14 09:13:48;;;;;;;10.53;6.57;;;;;;;17.47;27.70;99672.94;5052245;28;20202;-71
2023/03/14 09:16:15;;;;;;;8.30;7.50;;;;;;;17.73;27.49;99667.84;5053516;28;20198;-68
2023/03/14 09:18:41;;;;;;;9.63;7.77;;;;;;;16.28;28.70;99660.84;5052832;28;20189;-68
2023/03/14 09:21:10;;;;;;;34.27;10.13;;;;;;;16.46;29.04;99658.16;5053451;28;20192;-68
2023/03/14 09:23:36;;;;;;;8.37;7.00;;;;;;;16.32;29.03;99651.28;5048397;28;20242;-68
2023/03/14 09:26:03;;;;;;;8.97;5.80;;;;;;;16.60;29.56;99648.84;5051718;28;20247;-66
2023/03/14 09:28:30;;;;;;;12.37;7.10;;;;;;;17.00;28.66;99639.91;5051352;28;20205;-68
2023/03/14 09:30:57;;;;;;;10.63;6.90;;;;;;;17.01;28.40;99635.34;5051069;28;20275;-69
2023/03/14 09:33:24;;;;;;;6.80;6.23;;;;;;;16.70;28.34;99633.00;5051619;28;20680;-69
2023/03/14 09:35:51;;;;;;;6.60;5.97;;;;;;;16.43;28.31;99627.25;5051931;28;20240;-69
2023/03/14 09:38:20;;;;;;;6.80;5.67;;;;;;;16.35;28.94;99618.69;5053250;28;20189;-68
2023/03/14 09:40:48;;;;;;;7.33;5.87;;;;;;;16.27;28.96;99621.69;5052727;28;20199;-68
2023/03/14 09:43:16;;;;;;;7.70;5.93;;;;;;;16.53;29.35;99621.31;5052326;28;20315;-68
2023/03/14 09:45:47;;;;;;;9.30;6.20;;;;;;;16.70;28.18;99619.59;5052096;28;20247;-67
2023/03/14 09:48:17;;;;;;;18.17;6.00;;;;;;;16.55;28.35;99608.50;5060711;28;20188;-68
2023/03/14 09:50:47;;;;;;;22.40;6.63;;;;;;;16.91;27.66;99616.34;5052025;28;20614;-67
2023/03/14 09:53:17;;;;;;;7.70;6.50;;;;;;;17.06;27.44;99616.69;5032000;28;20263;-67
2023/03/14 09:55:46;;;;;;;6.10;5.60;;;;;;;17.42;26.94;99627.97;5064163;28;20251;-69
2023/03/14 09:58:17;;;;;;;7.43;6.13;;;;;;;17.52;26.27;99616.63;5052269;28;20213;-67
2023/03/14 10:00:43;;;;;;;6.93;6.20;;;;;;;17.64;25.96;99615.53;5057785;28;20186;-68
2023/03/14 10:03:23;;;;;;;23.70;6.67;;;;;;;17.86;25.96;99608.47;5053456;28;20221;-67
2023/03/14 10:05:50;;;;;;;5.63;5.20;;;;;;;18.08;25.16;99600.50;5072506;28;20269;-67
2023/03/14 10:08:17;;;;;;;11.23;5.20;;;;;;;18.23;24.84;99595.41;5052282;28;20249;-67
2023/03/14 10:10:45;;;;;;;7.27;5.50;;;;;;;18.49;24.93;99592.09;5052645;28;20197;-68
2023/03/14 10:13:17;;;;;;;6.17;5.67;;;;;;;18.57;24.57;99589.00;5052319;28;20192;-67
2023/03/14 10:15:49;;;;;;;5.67;5.27;;;;;;;18.26;24.99;99576.13;5051799;28;20187;-68
2023/03/14 10:18:16;;;;;;;8.40;5.70;;;;;;;18.29;25.13;99570.25;5051474;28;20223;-68
2023/03/14 10:20:45;;;;;;;8.50;5.77;;;;;;;18.13;25.36;99566.47;5051868;28;20193;-67
2023/03/14 10:23:27;;;;;;;7.40;5.80;;;;;;;18.32;25.70;99553.59;5050961;28;20220;-67
2023/03/14 10:26:07;;;;;;;6.30;5.70;;;;;;;18.23;25.09;99550.53;5051847;28;20187;-67
2023/03/14 10:28:38;;;;;;;5.40;4.90;;;;;;;17.62;25.92;99550.50;5032178;28;20580;-67
2023/03/14 10:31:05;;;;;;;6.00;5.10;;;;;;;17.46;26.58;99531.63;5032889;28;20235;-67
2023/03/14 10:33:34;;;;;;;5.57;4.90;;;;;;;17.23;26.63;99537.84;5051321;28;20196;-67
2023/03/14 10:36:03;;;;;;;6.87;5.50;;;;;;;17.29;26.91;99528.03;5051078;28;20258;-66
2023/03/14 10:38:31;;;;;;;10.20;5.40;;;;;;;17.31;27.14;99531.31;5030429;28;20192;-67
2023/03/14 10:40:59;;;;;;;5.67;5.13;;;;;;;17.24;26.94;99518.03;5029411;28;20199;-66
2023/03/14 10:43:32;;;;;;;10.33;5.50;;;;;;;17.25;27.20;99513.47;5050059;28;20279;-68
2023/03/14 10:46:02;;;;;;;7.77;4.93;;;;;;;17.15;27.03;99507.91;5050540;28;20250;-68
2023/03/14 10:48:33;;;;;;;7.43;5.30;;;;;;;17.02;27.36;99502.81;5051464;28;20216;-68
2023/03/14 10:51:06;;;;;;;4.73;4.33;;;;;;;17.34;26.51;99495.91;5031362;28;20251;-67
2023/03/14 10:53:42;;;;;;;5.07;4.73;;;;;;;17.54;26.41;99491.78;5051144;28;20249;-68
2023/03/14 10:56:13;;;;;;;6.03;4.77;;;;;;;17.64;26.45;99486.59;5044417;28;20181;-67
2023/03/14 10:58:44;;;;;;;5.30;4.80;;;;;;;17.77;26.38;99488.16;5038780;28;20654;-67
2023/03/14 11:01:26;;;;;;;6.63;5.23;;;;;;;17.25;26.92;99476.69;5050333;28;20192;-67
2023/03/14 11:03:58;;;;;;;5.90;5.50;;;;;;;16.76;27.74;99460.38;5049441;28;20208;-67
2023/03/14 11:06:31;;;;;;;5.10;4.60;;;;;;;16.79;28.19;99457.22;5050614;28;20189;-68
2023/03/14 11:09:08;;;;;;;12.80;5.17;;;;;;;16.70;28.04;99447.91;5049521;28;20192;-67
2023/03/14 11:11:35;;;;;;;5.57;5.23;;;;;;;16.84;27.79;99441.22;5051542;28;20192;-66
2023/03/14 11:14:19;;;;;;;5.23;4.90;;;;;;;16.45;28.47;99436.66;5050761;28;20246;-67
2023/03/14 11:16:55;;;;;;;6.03;4.43;;;;;;;16.69;28.70;99427.50;5051152;28;20180;-66
2023/03/14 11:19:37;;;;;;;5.27;4.87;;;;;;;16.87;28.50;99420.09;5050860;28;20180;-67
2023/03/14 11:22:14;;;;;;;5.17;4.87;;;;;;;16.77;28.81;99408.34;5050364;28;20657;-65
2023/03/14 11:24:51;;;;;;;6.03;5.03;;;;;;;16.82;28.67;99395.84;5048734;28;20262;-66
2023/03/14 11:27:22;;;;;;;8.43;5.20;;;;;;;16.78;29.20;99383.19;5047981;28;20271;-70
2023/03/14 11:29:56;;;;;;;6.50;5.20;;;;;;;16.70;28.79;99368.25;5048479;28;20247;-66
2023/03/14 11:32:34;;;;;;;4.47;4.17;;;;;;;16.76;28.80;99372.69;5048418;28;20224;-68